createdAt,value
2023-06-13T11:39:10.863Z,32.85
2023-06-13T11:41:10.799Z,33.62
2023-06-13T11:42:10.777Z,33.23
2023-06-13T11:43:10.756Z,34.43
2023-06-13T11:44:10.750Z,33.84
2023-06-13T11:45:10.733Z,34.59
2023-06-13T11:46:10.730Z,33.59
2023-06-13T11:47:10.746Z,33.07
2023-06-13T11:48:10.747Z,32.86
2023-06-13T11:49:10.773Z,33.43
2023-06-13T11:50:10.656Z,32.92
2023-06-13T11:51:10.659Z,32.14
2023-06-13T11:52:10.632Z,32.59
2023-06-13T11:53:10.655Z,32.70
2023-06-13T11:54:10.630Z,33.39
2023-06-13T11:55:10.610Z,33.28
2023-06-13T11:56:10.597Z,32.57
2023-06-13T11:57:10.613Z,32.77
2023-06-13T11:58:10.556Z,32.64
2023-06-13T11:59:10.554Z,32.15
2023-06-13T12:00:10.618Z,32.74
2023-06-13T12:01:10.526Z,32.84
2023-06-13T12:02:10.556Z,32.24
2023-06-13T12:03:10.663Z,32.23
2023-06-13T12:04:10.558Z,32.62
2023-06-13T12:05:10.513Z,32.79
2023-06-13T12:06:10.455Z,32.12
2023-06-13T12:07:10.447Z,31.90
2023-06-13T12:08:10.431Z,31.97
2023-06-13T12:09:10.421Z,33.22
2023-06-13T12:10:10.415Z,30.39
2023-06-13T12:11:20.455Z,30.70
2023-06-13T12:12:11.387Z,31.01
2023-06-13T12:13:10.370Z,31.46
2023-06-13T12:14:10.363Z,32.10
2023-06-13T12:15:10.355Z,32.59
2023-06-13T12:16:10.338Z,32.97
2023-06-13T12:17:10.577Z,33.03
2023-06-13T12:18:10.335Z,31.74
2023-06-13T12:19:10.351Z,31.25
2023-06-13T12:20:10.306Z,32.23
2023-06-13T12:21:10.271Z,32.56
2023-06-13T12:22:10.293Z,32.48
2023-06-13T12:23:10.251Z,31.88
2023-06-13T12:24:10.271Z,32.87
2023-06-13T12:25:10.228Z,33.86
2023-06-13T12:26:10.207Z,33.54
2023-06-13T12:27:10.195Z,33.38
2023-06-13T12:28:10.214Z,32.89
2023-06-13T12:29:10.197Z,32.46
2023-06-13T12:30:10.191Z,32.34
2023-06-13T12:31:10.185Z,33.12
2023-06-13T12:32:10.148Z,32.50
2023-06-13T12:33:10.213Z,31.77
2023-06-13T12:34:10.106Z,31.37
2023-06-13T12:35:10.103Z,30.07
2023-06-13T12:36:10.082Z,29.79
2023-06-13T12:37:10.073Z,30.21
2023-06-13T12:38:10.070Z,30.22
2023-06-13T12:39:10.048Z,30.32
2023-06-13T12:40:10.041Z,31.20
2023-06-13T12:41:10.028Z,30.24
2023-06-13T12:42:10.072Z,30.73
2023-06-13T12:43:10.012Z,31.19
2023-06-13T12:44:10.018Z,30.30
2023-06-13T12:45:09.974Z,30.88
2023-06-13T12:46:09.969Z,30.58
2023-06-13T12:47:10.018Z,30.11
2023-06-13T12:48:10.027Z,29.62
2023-06-13T12:49:09.944Z,30.15
2023-06-13T12:50:09.976Z,32.51
2023-06-13T12:51:09.910Z,30.35
2023-06-13T12:52:09.887Z,31.12
2023-06-13T12:53:10.005Z,30.91
2023-06-13T12:54:09.852Z,30.71
2023-06-13T12:55:09.849Z,30.94
2023-06-13T12:56:09.850Z,31.94
2023-06-13T12:57:10.583Z,31.97
2023-06-13T12:58:09.799Z,31.88
2023-06-13T12:59:09.802Z,32.23
2023-06-13T13:00:09.782Z,33.01
2023-06-13T13:01:09.773Z,33.28
2023-06-13T13:02:10.045Z,32.28
2023-06-13T13:03:09.819Z,32.17
2023-06-13T13:04:09.826Z,30.77
2023-06-13T13:05:09.711Z,30.74
2023-06-13T13:06:09.712Z,31.02
2023-06-13T13:07:09.686Z,32.04
2023-06-13T13:08:09.679Z,31.05
2023-06-13T13:09:09.682Z,31.36
2023-06-13T13:10:09.656Z,32.43
2023-06-13T13:11:09.648Z,31.33
2023-06-13T13:12:09.641Z,31.32
2023-06-13T13:13:09.613Z,31.50
2023-06-13T13:14:09.593Z,30.71
2023-06-13T13:15:09.596Z,31.73
2023-06-13T13:16:09.604Z,31.20
2023-06-13T13:17:09.563Z,31.58
2023-06-13T13:18:09.573Z,30.01
2023-06-13T13:19:09.528Z,30.19
2023-06-13T13:20:09.530Z,30.00
2023-06-13T13:21:09.503Z,30.19
2023-06-13T13:22:09.508Z,30.67
2023-06-13T13:23:09.481Z,28.57
2023-06-13T13:24:09.537Z,27.49
2023-06-13T13:25:09.469Z,29.85
2023-06-13T13:26:09.447Z,29.56
2023-06-13T13:27:09.441Z,28.88
2023-06-13T13:28:09.422Z,29.79
2023-06-13T13:29:09.429Z,28.63
2023-06-13T13:30:09.396Z,29.52
2023-06-13T13:31:09.383Z,29.70
2023-06-13T13:32:09.445Z,29.20
2023-06-13T13:33:09.418Z,30.58
2023-06-13T13:34:22.085Z,30.39
2023-06-13T13:35:10.419Z,29.52
2023-06-13T13:36:09.320Z,30.16
2023-06-13T13:37:09.305Z,31.03
2023-06-13T13:38:09.296Z,29.45
2023-06-13T13:39:09.299Z,28.96
2023-06-13T13:40:09.262Z,30.30
2023-06-13T13:41:09.252Z,28.63
2023-06-13T13:42:17.999Z,28.22
2023-06-13T13:43:10.239Z,28.32
2023-06-13T13:44:09.226Z,27.55
2023-06-13T13:45:09.246Z,27.75
2023-06-13T13:46:09.186Z,28.15
2023-06-13T13:47:09.176Z,28.04
2023-06-13T13:48:09.235Z,27.55
2023-06-13T13:49:09.280Z,27.86
2023-06-13T13:50:09.300Z,28.47
2023-06-13T13:51:09.150Z,28.20
2023-06-13T13:52:09.111Z,29.58
2023-06-13T13:53:09.149Z,29.02
2023-06-13T13:54:09.083Z,29.03
2023-06-13T13:55:09.081Z,30.21
2023-06-13T13:56:09.084Z,29.13
2023-06-13T13:57:09.108Z,29.43
2023-06-13T13:58:09.046Z,29.60
2023-06-13T13:59:09.069Z,28.71
2023-06-13T14:00:09.014Z,28.53
2023-06-13T14:01:09.002Z,29.11
2023-06-13T14:02:09.141Z,29.31
2023-06-13T14:03:09.082Z,29.31
2023-06-13T14:04:09.044Z,29.62
2023-06-13T14:05:08.972Z,29.72
2023-06-13T14:06:08.931Z,29.69
2023-06-13T14:07:08.948Z,29.07
2023-06-13T14:08:08.911Z,28.81
2023-06-13T14:09:08.908Z,29.00
2023-06-13T14:10:08.952Z,29.83
2023-06-13T14:11:08.915Z,30.42
2023-06-13T14:12:08.926Z,29.75
2023-06-13T14:13:08.867Z,29.64
2023-06-13T14:14:08.849Z,30.68
2023-06-13T14:15:08.830Z,29.28
2023-06-13T14:16:08.864Z,29.28
2023-06-13T14:17:08.823Z,29.60
2023-06-13T14:18:08.853Z,29.70
2023-06-13T14:19:08.783Z,29.87
2023-06-13T14:20:08.762Z,29.11
2023-06-13T14:21:08.783Z,30.27
2023-06-13T14:22:08.732Z,29.58
2023-06-13T14:23:08.729Z,28.69
2023-06-13T14:24:08.776Z,29.18
2023-06-13T14:25:08.712Z,29.27
2023-06-13T14:26:08.703Z,29.30
2023-06-13T14:27:08.753Z,28.25
2023-06-13T14:28:08.668Z,29.52
2023-06-13T14:29:08.652Z,28.92
2023-06-13T14:30:16.502Z,28.63
2023-06-13T14:31:09.846Z,29.02
2023-06-13T14:32:08.693Z,28.72
2023-06-13T14:33:08.872Z,28.74
2023-06-13T14:34:08.590Z,29.72
2023-06-13T14:35:08.599Z,30.42
2023-06-13T14:36:08.572Z,29.60
2023-06-13T14:37:08.564Z,29.20
2023-06-13T14:38:08.545Z,28.23
2023-06-13T14:39:08.530Z,29.24
2023-06-13T14:40:08.525Z,29.21
2023-06-13T14:41:08.497Z,29.14
2023-06-13T14:42:08.497Z,29.16
2023-06-13T14:43:08.479Z,29.64
2023-06-13T14:44:08.517Z,29.34
2023-06-13T14:45:08.464Z,29.91
2023-06-13T14:46:08.483Z,29.00
2023-06-13T14:47:08.425Z,29.10
2023-06-13T14:48:08.560Z,28.63
2023-06-13T14:49:08.411Z,29.39
2023-06-13T14:50:08.484Z,28.59
2023-06-13T14:51:08.373Z,27.91
2023-06-13T14:52:08.384Z,28.41
2023-06-13T14:53:08.352Z,28.81
2023-06-13T14:54:08.358Z,28.53
2023-06-13T14:55:08.334Z,28.51
2023-06-13T14:56:08.348Z,28.83
2023-06-13T14:57:08.295Z,29.02
2023-06-13T14:58:08.304Z,28.99
2023-06-13T14:59:08.303Z,28.99
2023-06-13T15:00:15.310Z,28.82
2023-06-13T15:01:08.322Z,28.96
2023-06-13T15:02:08.273Z,29.93
2023-06-13T15:03:08.294Z,29.90
2023-06-13T15:04:08.210Z,29.95
2023-06-13T15:05:08.238Z,27.59
2023-06-13T15:06:08.196Z,27.88
2023-06-13T15:07:08.184Z,28.39
2023-06-13T15:08:08.177Z,29.41
2023-06-13T15:09:08.158Z,29.22
2023-06-13T15:10:08.147Z,29.35
2023-06-13T15:11:08.155Z,29.69
2023-06-13T15:12:08.142Z,30.38
2023-06-13T15:13:08.127Z,29.94
2023-06-13T15:14:08.083Z,30.00
2023-06-13T15:15:08.168Z,28.40
2023-06-13T15:16:08.140Z,28.74
2023-06-13T15:17:08.064Z,29.45
2023-06-13T15:18:08.111Z,30.63
2023-06-13T15:19:08.024Z,30.11
2023-06-13T15:20:08.025Z,29.90
2023-06-13T15:21:08.013Z,29.95
2023-06-13T15:22:08.008Z,30.00
2023-06-13T15:23:07.989Z,29.41
2023-06-13T15:24:08.002Z,31.16
2023-06-13T15:25:07.956Z,29.50
2023-06-13T15:26:07.962Z,30.59
2023-06-13T15:27:07.940Z,31.84
2023-06-13T15:28:07.921Z,32.14
2023-06-13T15:29:07.901Z,32.51
2023-06-13T15:30:07.895Z,31.01
2023-06-13T15:31:07.944Z,31.38
2023-06-13T15:32:07.883Z,29.99
2023-06-13T15:33:07.920Z,29.28
2023-06-13T15:34:07.837Z,29.49
2023-06-13T15:35:07.833Z,29.99
2023-06-13T15:36:07.842Z,31.26
2023-06-13T15:37:07.810Z,32.86
2023-06-13T15:38:07.796Z,31.96
2023-06-13T15:39:07.803Z,31.63
2023-06-13T15:40:07.807Z,31.13
2023-06-13T15:41:07.790Z,32.66
2023-06-13T15:42:07.747Z,31.57
2023-06-13T15:43:07.793Z,30.97
2023-06-13T15:44:07.734Z,29.50
2023-06-13T15:45:07.737Z,29.00
2023-06-13T15:46:07.706Z,29.90
2023-06-13T15:47:07.706Z,30.30
2023-06-13T15:48:07.735Z,30.74
2023-06-13T15:49:07.677Z,31.26
2023-06-13T15:50:07.664Z,31.63
2023-06-13T15:51:07.655Z,31.27
2023-06-13T15:52:07.627Z,31.57
2023-06-13T15:53:07.615Z,31.45
2023-06-13T15:54:07.613Z,31.16
2023-06-13T15:55:07.608Z,30.58
2023-06-13T15:56:09.058Z,30.71
2023-06-13T15:57:07.581Z,31.77
2023-06-13T15:58:07.558Z,32.27
2023-06-13T15:59:07.556Z,31.37
2023-06-13T16:00:07.562Z,31.06
2023-06-13T16:01:07.763Z,31.16
2023-06-13T16:02:07.502Z,31.34
2023-06-13T16:03:07.694Z,31.06
2023-06-13T16:04:07.525Z,31.45
2023-06-13T16:05:07.494Z,31.38
2023-06-13T16:06:07.453Z,31.10
2023-06-13T16:07:07.456Z,32.79
2023-06-13T16:08:07.434Z,32.48
2023-06-13T16:09:07.447Z,32.57
2023-06-13T16:10:07.404Z,32.18
2023-06-13T16:11:07.393Z,32.78
2023-06-13T16:12:07.393Z,32.57
2023-06-13T16:13:07.391Z,32.09
2023-06-13T16:14:07.362Z,31.77
2023-06-13T16:15:07.420Z,31.77
2023-06-13T16:16:07.358Z,32.35
2023-06-13T16:17:07.362Z,32.23
2023-06-13T16:18:07.557Z,31.67
2023-06-13T16:19:07.417Z,31.94
2023-06-13T16:20:07.282Z,31.77
2023-06-13T16:21:07.269Z,31.71
2023-06-13T16:22:07.260Z,32.02
2023-06-13T16:23:07.259Z,34.67
2023-06-13T16:24:07.347Z,32.41
2023-06-13T16:25:07.226Z,32.41
2023-06-13T16:26:07.308Z,33.18
2023-06-13T16:27:07.218Z,32.20
2023-06-13T16:28:07.217Z,33.08
2023-06-13T16:29:07.203Z,32.38
2023-06-13T16:30:07.216Z,31.77
2023-06-13T16:31:07.198Z,31.87
2023-06-13T16:32:07.146Z,32.46
2023-06-13T16:33:07.188Z,31.87
2023-06-13T16:34:07.110Z,32.66
2023-06-13T16:35:07.090Z,31.97
2023-06-13T16:36:07.110Z,32.59
2023-06-13T16:37:07.085Z,32.31
2023-06-13T16:38:07.054Z,32.62
2023-06-13T16:39:07.051Z,32.54
2023-06-13T16:40:07.030Z,32.74
2023-06-13T16:41:10.078Z,32.74
2023-06-13T16:42:07.047Z,33.02
2023-06-13T16:43:06.996Z,33.23
2023-06-13T16:44:06.992Z,33.15
2023-06-13T16:45:06.980Z,34.13
2023-06-13T16:46:07.061Z,33.54
2023-06-13T16:47:07.966Z,32.74
2023-06-13T16:48:07.037Z,33.34
2023-06-13T16:49:06.925Z,33.05
2023-06-13T16:50:06.902Z,33.84
2023-06-13T16:51:06.941Z,32.84
2023-06-13T16:52:06.881Z,33.05
2023-06-13T16:53:06.875Z,32.93
2023-06-13T16:54:06.850Z,32.64
2023-06-13T16:55:06.856Z,32.64
2023-06-13T16:56:06.832Z,32.53
2023-06-13T16:57:06.818Z,32.72
2023-06-13T16:58:06.816Z,32.82
2023-06-13T16:59:06.807Z,33.70
2023-06-13T17:00:06.798Z,33.41
2023-06-13T17:01:06.784Z,32.34
2023-06-13T17:02:06.789Z,32.93
2023-06-13T17:03:06.880Z,32.86
2023-06-13T17:04:06.942Z,32.76
2023-06-13T17:05:06.739Z,32.65
2023-06-13T17:06:06.735Z,32.76
2023-06-13T17:07:06.758Z,32.65
2023-06-13T17:08:06.692Z,32.65
2023-06-13T17:09:06.670Z,32.95
2023-06-13T17:10:06.673Z,33.84
2023-06-13T17:11:06.648Z,34.01
2023-06-13T17:12:06.624Z,33.03
2023-06-13T17:13:06.619Z,32.48
2023-06-13T17:14:06.617Z,33.38
2023-06-13T17:15:06.614Z,33.28
2023-06-13T17:16:06.598Z,33.77
2023-06-13T17:17:06.580Z,33.39
2023-06-13T17:18:06.631Z,33.42
2023-06-13T17:19:06.559Z,34.13
2023-06-13T17:20:06.551Z,34.01
2023-06-13T17:21:06.533Z,35.20
2023-06-13T17:22:06.529Z,34.22
2023-06-13T17:23:06.495Z,34.81
2023-06-13T17:24:06.930Z,33.33
2023-06-13T17:25:06.463Z,33.72
2023-06-13T17:26:06.468Z,33.15
2023-06-13T17:27:06.453Z,33.13
2023-06-13T17:28:06.444Z,33.33
2023-06-13T17:29:06.429Z,32.93
2023-06-13T17:30:06.432Z,33.53
2023-06-13T17:31:06.397Z,33.54
2023-06-13T17:32:06.465Z,35.60
2023-06-13T17:33:06.483Z,34.72
2023-06-13T17:34:06.357Z,34.03
2023-06-13T17:35:06.347Z,33.74
2023-06-13T17:36:06.325Z,33.94
2023-06-13T17:37:06.399Z,33.23
2023-06-13T17:38:06.303Z,33.25
2023-06-13T17:39:06.305Z,34.03
2023-06-13T17:40:06.267Z,33.84
2023-06-13T17:41:06.284Z,33.94
2023-06-13T17:42:06.259Z,34.23
2023-06-13T17:43:06.261Z,33.34
2023-06-13T17:44:06.226Z,33.75
2023-06-13T17:45:06.223Z,33.37
2023-06-13T17:46:06.199Z,33.08
2023-06-13T17:47:06.200Z,32.77
2023-06-13T17:48:06.215Z,32.67
2023-06-13T17:49:06.366Z,32.67
2023-06-13T17:50:06.154Z,33.46
2023-06-13T17:51:06.140Z,34.44
2023-06-13T17:52:06.131Z,33.67
2023-06-13T17:53:06.122Z,33.08
2023-06-13T17:54:06.090Z,33.08
2023-06-13T17:55:06.087Z,33.37
2023-06-13T17:56:06.081Z,33.58
2023-06-13T17:57:06.084Z,34.36
2023-06-13T17:58:06.049Z,33.56
2023-06-13T17:59:06.038Z,33.58
2023-06-13T18:00:06.026Z,33.67
2023-06-13T18:01:06.046Z,34.55
2023-06-13T18:02:06.005Z,35.43
2023-06-13T18:03:05.999Z,35.52
2023-06-13T18:04:06.063Z,34.92
2023-06-13T18:05:05.949Z,35.41
2023-06-13T18:06:05.954Z,34.44
2023-06-13T18:07:05.940Z,34.86
2023-06-13T18:08:05.925Z,35.37
2023-06-13T18:09:05.927Z,35.38
2023-06-13T18:10:05.917Z,35.58
2023-06-13T18:11:05.931Z,35.40
2023-06-13T18:12:16.897Z,35.89
2023-06-13T18:13:06.901Z,35.38
2023-06-13T18:14:05.857Z,35.78
2023-06-13T18:15:05.847Z,35.38
2023-06-13T18:16:05.910Z,34.89
2023-06-13T18:17:05.796Z,35.30
2023-06-13T18:18:05.814Z,34.73
2023-06-13T18:19:05.861Z,35.22
2023-06-13T18:20:05.783Z,34.92
2023-06-13T18:21:05.748Z,35.22
2023-06-13T18:22:05.764Z,35.53
2023-06-13T18:23:05.732Z,35.63
2023-06-13T18:24:05.794Z,35.95
2023-06-13T18:25:05.703Z,36.07
2023-06-13T18:26:05.694Z,36.38
2023-06-13T18:27:05.671Z,36.98
2023-06-13T18:28:05.680Z,37.49
2023-06-13T18:29:05.655Z,37.88
2023-06-13T18:30:05.643Z,37.30
2023-06-13T18:31:05.668Z,37.81
2023-06-13T18:32:05.606Z,38.10
2023-06-13T18:33:05.682Z,38.92
2023-06-13T18:34:05.615Z,38.42
2023-06-13T18:35:05.562Z,38.81
2023-06-13T18:36:05.558Z,39.61
2023-06-13T18:37:05.584Z,38.52
2023-06-13T18:38:05.556Z,38.64
2023-06-13T18:39:05.530Z,38.83
2023-06-13T18:40:05.501Z,39.53
2023-06-13T18:41:05.496Z,39.33
2023-06-13T18:42:05.475Z,39.92
2023-06-13T18:43:05.492Z,39.83
2023-06-13T18:44:05.450Z,39.45
2023-06-13T18:45:05.453Z,40.44
2023-06-13T18:46:05.442Z,41.04
2023-06-13T18:47:05.522Z,40.84
2023-06-13T18:48:05.489Z,40.16
2023-06-13T18:49:05.385Z,41.36
2023-06-13T18:50:05.374Z,41.66
2023-06-13T18:51:05.364Z,41.25
2023-06-13T18:52:05.354Z,41.25
2023-06-13T18:53:05.354Z,41.66
2023-06-13T18:54:05.329Z,41.75
2023-06-13T18:55:05.314Z,41.85
2023-06-13T18:56:05.319Z,42.17
2023-06-13T18:57:05.297Z,41.97
2023-06-13T18:58:05.290Z,41.97
2023-06-13T18:59:05.273Z,42.67
2023-06-13T19:00:05.247Z,42.59
2023-06-13T19:01:05.357Z,42.29
2023-06-13T19:02:05.232Z,43.08
2023-06-13T19:03:08.033Z,43.08
2023-06-13T19:04:05.217Z,42.69
2023-06-13T19:05:05.188Z,43.49
2023-06-13T19:06:05.171Z,43.01
2023-06-13T19:07:05.177Z,43.60
2023-06-13T19:08:05.150Z,42.91
2023-06-13T19:09:05.130Z,43.21
2023-06-13T19:10:05.135Z,44.80
2023-06-13T19:11:05.115Z,44.50
2023-06-13T19:12:05.125Z,44.01
2023-06-13T19:13:05.154Z,44.12
2023-06-13T19:14:05.062Z,46.42
2023-06-13T19:15:05.047Z,46.61
2023-06-13T19:16:05.046Z,47.02
2023-06-13T19:17:05.063Z,48.23
2023-06-13T19:18:07.238Z,48.23
2023-06-13T19:19:05.008Z,49.53
2023-06-13T19:20:04.969Z,48.95
2023-06-13T19:21:05.245Z,48.55
2023-06-13T19:22:05.004Z,49.57
2023-06-13T19:23:04.955Z,48.68
2023-06-13T19:24:05.043Z,49.68
2023-06-13T19:25:06.773Z,49.57
2023-06-13T19:26:04.912Z,50.30
2023-06-13T19:27:04.891Z,49.20
2023-06-13T19:29:05.872Z,50.70
2023-06-13T19:30:04.861Z,50.52
2023-06-13T19:31:04.891Z,50.82
2023-06-13T19:32:04.833Z,50.52
2023-06-13T19:33:04.904Z,50.45
2023-06-13T19:34:04.810Z,49.95
2023-06-13T19:35:04.849Z,51.84
2023-06-13T19:36:04.800Z,50.65
2023-06-13T19:37:04.798Z,52.25
2023-06-13T19:38:04.752Z,52.07
2023-06-13T19:39:04.755Z,52.07
2023-06-13T19:40:04.731Z,52.09
2023-06-13T19:41:04.706Z,52.80
2023-06-13T19:42:04.685Z,52.69
2023-06-13T19:43:04.688Z,53.19
2023-06-13T19:44:04.679Z,52.89
2023-06-13T19:45:04.660Z,52.99
2023-06-13T19:46:04.632Z,53.12
2023-06-13T19:47:04.638Z,53.52
2023-06-13T19:48:04.660Z,54.05
2023-06-13T19:49:04.673Z,54.44
2023-06-13T19:50:04.584Z,55.15
2023-06-13T19:51:17.841Z,55.35
2023-06-13T19:52:05.551Z,55.65
2023-06-13T19:53:04.576Z,55.65
2023-06-13T19:54:04.541Z,54.74
2023-06-13T19:55:04.524Z,55.05
2023-06-13T19:56:04.498Z,54.94
2023-06-13T19:57:04.495Z,55.07
2023-06-13T19:58:04.506Z,55.37
2023-06-13T19:59:04.485Z,55.87
2023-06-13T20:00:04.453Z,54.57
2023-06-13T20:01:04.446Z,53.57
2023-06-13T20:02:04.472Z,54.97
2023-06-13T20:03:04.469Z,55.77
2023-06-13T20:04:04.434Z,56.17
2023-06-13T20:05:04.421Z,56.67
2023-06-13T20:06:04.374Z,56.80
2023-06-13T20:07:04.377Z,56.70
2023-06-13T20:08:04.359Z,56.80
2023-06-13T20:09:04.346Z,56.00
2023-06-13T20:10:04.324Z,56.90
2023-06-13T20:11:04.316Z,56.40
2023-06-13T20:12:04.302Z,56.63
2023-06-13T20:13:04.299Z,57.13
2023-06-13T20:14:04.266Z,57.73
2023-06-13T20:15:04.261Z,56.93
2023-06-13T20:16:04.375Z,57.63
2023-06-13T20:17:04.246Z,58.03
2023-06-13T20:18:04.275Z,58.73
2023-06-13T20:19:04.221Z,58.06
2023-06-13T20:20:04.184Z,57.76
2023-06-13T20:21:04.179Z,58.36
2023-06-13T20:22:04.178Z,58.06
2023-06-13T20:23:04.149Z,57.89
2023-06-13T20:24:04.203Z,57.79
2023-06-13T20:25:04.124Z,57.98
2023-06-13T20:26:04.147Z,58.09
2023-06-13T20:27:04.126Z,57.79
2023-06-13T20:28:04.098Z,58.09
2023-06-13T20:29:04.150Z,58.29
2023-06-13T20:30:04.063Z,58.79
2023-06-13T20:31:04.059Z,58.39
2023-06-13T20:32:04.096Z,57.61
2023-06-13T20:33:04.074Z,57.51
2023-06-13T20:34:04.007Z,57.21
2023-06-13T20:35:04.002Z,57.81
2023-06-13T20:36:04.013Z,58.01
2023-06-13T20:37:03.987Z,58.81
2023-06-13T20:38:03.948Z,59.22
2023-06-13T20:39:03.940Z,59.12
2023-06-13T20:40:03.971Z,59.72
2023-06-13T20:41:03.981Z,59.01
2023-06-13T20:42:03.913Z,59.01
2023-06-13T20:43:03.886Z,59.85
2023-06-13T20:44:03.877Z,60.15
2023-06-13T20:45:03.879Z,58.24
2023-06-13T20:46:03.912Z,58.84
2023-06-13T20:47:03.838Z,58.24
2023-06-13T20:48:03.842Z,58.84
2023-06-13T20:49:03.855Z,57.54
2023-06-13T20:50:03.823Z,58.24
2023-06-13T20:51:03.912Z,59.65
2023-06-13T20:52:03.768Z,58.94
2023-06-13T20:53:03.762Z,58.14
2023-06-13T20:54:03.750Z,58.94
2023-06-13T20:55:03.744Z,59.05
2023-06-13T20:56:03.719Z,59.14
2023-06-13T20:57:03.748Z,59.25
2023-06-13T20:58:03.680Z,59.05
2023-06-13T20:59:03.688Z,59.95
